createdAt,value
2019-03-28T00:02:03.489Z,10.10
2019-03-28T00:04:44.980Z,10.00
2019-03-28T00:07:11.178Z,10.00
2019-03-28T00:09:43.466Z,10.00
2019-03-28T00:12:09.624Z,10.00
2019-03-28T00:14:35.804Z,10.00
2019-03-28T00:17:04.572Z,10.00
2019-03-28T00:19:30.755Z,10.00
2019-03-28T00:21:56.926Z,9.90
2019-03-28T00:24:43.120Z,9.90
2019-03-28T00:27:09.402Z,9.90
2019-03-28T00:29:35.600Z,9.90
2019-03-28T00:32:01.771Z,9.90
2019-03-28T00:34:27.964Z,9.90
2019-03-28T00:36:54.174Z,10.00
2019-03-28T00:39:20.419Z,10.00
2019-03-28T00:41:46.741Z,9.90
2019-03-28T00:44:13.064Z,9.90
2019-03-28T00:46:39.610Z,9.90
2019-03-28T00:49:05.894Z,9.90
2019-03-28T00:51:38.199Z,9.80
2019-03-28T00:54:04.498Z,9.80
2019-03-28T00:56:44.817Z,9.80
2019-03-28T00:59:08.786Z,9.80
2019-03-28T01:01:47.364Z,9.80
2019-03-28T01:04:13.543Z,9.80
2019-03-28T01:06:39.729Z,9.80
2019-03-28T01:09:06.729Z,9.80
2019-03-28T01:11:35.680Z,9.80
2019-03-28T01:14:01.863Z,9.70
2019-03-28T01:16:28.149Z,9.70
2019-03-28T01:18:54.325Z,9.70
2019-03-28T01:21:20.566Z,9.70
2019-03-28T01:23:46.740Z,9.60
2019-03-28T01:26:12.900Z,9.60
2019-03-28T01:28:39.126Z,9.50
2019-03-28T01:31:05.290Z,9.50
2019-03-28T01:33:31.493Z,9.50
2019-03-28T01:35:57.664Z,9.50
2019-03-28T01:38:24.294Z,9.50
2019-03-28T01:40:51.080Z,9.50
2019-03-28T01:43:17.408Z,9.50
2019-03-28T01:45:46.728Z,9.50
2019-03-28T01:48:12.887Z,9.50
2019-03-28T01:50:51.262Z,9.50
2019-03-28T01:53:20.204Z,9.50
2019-03-28T01:55:46.403Z,9.40
2019-03-28T01:58:12.570Z,9.40
2019-03-28T02:00:41.612Z,9.40
2019-03-28T02:03:07.775Z,9.40
2019-03-28T02:05:34.089Z,9.40
2019-03-28T02:08:02.732Z,9.40
2019-03-28T02:10:28.444Z,9.40
2019-03-28T02:12:57.129Z,9.40
2019-03-28T02:15:23.310Z,9.50
2019-03-28T02:17:49.487Z,9.50
2019-03-28T02:20:18.243Z,9.50
2019-03-28T02:22:45.151Z,9.50
2019-03-28T02:25:14.299Z,9.50
2019-03-28T02:27:40.470Z,9.50
2019-03-28T02:30:07.947Z,9.50
2019-03-28T02:32:34.253Z,9.50
2019-03-28T02:35:00.635Z,9.50
2019-03-28T02:37:26.885Z,9.50
2019-03-28T02:39:53.183Z,9.50
2019-03-28T02:42:19.366Z,9.40
2019-03-28T02:44:45.592Z,9.50
2019-03-28T02:47:11.826Z,9.40
2019-03-28T02:49:38.021Z,9.50
2019-03-28T02:52:04.202Z,9.40
2019-03-28T02:54:31.528Z,9.40
2019-03-28T02:56:58.157Z,9.50
2019-03-28T02:59:24.336Z,9.50
2019-03-28T03:01:53.133Z,9.50
2019-03-28T03:04:21.894Z,9.50
2019-03-28T03:06:48.045Z,9.50
2019-03-28T03:09:14.321Z,9.50
2019-03-28T03:11:42.741Z,9.50
2019-03-28T03:14:08.597Z,9.50
2019-03-28T03:16:34.991Z,9.50
2019-03-28T03:19:01.242Z,9.50
2019-03-28T03:21:27.517Z,9.40
2019-03-28T03:23:53.781Z,9.50
2019-03-28T03:26:19.972Z,9.50
2019-03-28T03:28:46.176Z,9.50
2019-03-28T03:31:12.441Z,9.50
2019-03-28T03:33:38.768Z,9.50
2019-03-28T03:36:04.947Z,9.50
2019-03-28T03:38:31.122Z,9.50
2019-03-28T03:40:57.334Z,9.40
2019-03-28T03:43:23.597Z,9.40
2019-03-28T03:45:49.866Z,9.40
2019-03-28T03:48:16.044Z,9.40
2019-03-28T03:50:42.212Z,9.40
2019-03-28T03:53:08.482Z,9.40
2019-03-28T03:55:34.737Z,9.40
2019-03-28T03:58:14.385Z,9.40
2019-03-28T04:00:34.388Z,9.50
2019-03-28T04:03:00.726Z,9.40
2019-03-28T04:05:28.213Z,9.40
2019-03-28T04:07:54.393Z,9.40
2019-03-28T04:10:20.581Z,9.40
2019-03-28T04:12:46.825Z,9.40
2019-03-28T04:15:12.986Z,9.40
2019-03-28T04:17:39.191Z,9.40
2019-03-28T04:20:05.456Z,9.40
2019-03-28T04:22:31.653Z,9.40
2019-03-28T04:24:57.854Z,9.40
2019-03-28T04:27:24.039Z,9.40
2019-03-28T04:29:50.216Z,9.40
2019-03-28T04:32:16.382Z,9.40
2019-03-28T04:34:48.947Z,9.40
2019-03-28T04:37:15.143Z,9.40
2019-03-28T04:39:42.399Z,9.40
2019-03-28T04:42:08.809Z,9.40
2019-03-28T04:44:35.020Z,9.40
2019-03-28T04:47:01.226Z,9.40
2019-03-28T04:49:29.945Z,9.40
2019-03-28T04:51:56.119Z,9.40
2019-03-28T04:54:22.388Z,9.40
2019-03-28T04:56:48.539Z,9.40
2019-03-28T04:59:15.359Z,9.40
2019-03-28T05:01:41.841Z,9.40
2019-03-28T05:04:08.057Z,9.40
2019-03-28T05:06:34.223Z,9.40
2019-03-28T05:09:00.463Z,9.40
2019-03-28T05:11:26.654Z,9.40
2019-03-28T05:13:52.892Z,9.40
2019-03-28T05:16:19.149Z,9.40
2019-03-28T05:18:45.372Z,9.30
2019-03-28T05:21:11.574Z,9.40
2019-03-28T05:23:37.739Z,9.40
2019-03-28T05:26:03.932Z,9.40
2019-03-28T05:28:30.196Z,9.40
2019-03-28T05:30:56.430Z,9.30
2019-03-28T05:33:22.640Z,9.30
2019-03-28T05:35:48.965Z,9.30
2019-03-28T05:38:18.118Z,9.30
2019-03-28T05:40:44.514Z,9.30
2019-03-28T05:43:10.714Z,9.30
2019-03-28T05:45:36.972Z,9.30
2019-03-28T05:48:03.133Z,9.40
2019-03-28T05:50:29.339Z,9.40
2019-03-28T05:52:55.488Z,9.40
2019-03-28T05:55:24.262Z,9.40
2019-03-28T05:57:50.592Z,9.40
2019-03-28T06:00:16.919Z,9.40
2019-03-28T06:02:43.092Z,9.40
2019-03-28T06:05:09.276Z,9.40
2019-03-28T06:07:44.694Z,9.40
2019-03-28T06:10:11.250Z,9.40
2019-03-28T06:12:37.393Z,9.50
2019-03-28T06:15:05.361Z,9.50
2019-03-28T06:17:31.624Z,9.50
2019-03-28T06:20:00.661Z,9.50
2019-03-28T06:22:26.853Z,9.60
2019-03-28T06:24:53.095Z,9.60
2019-03-28T06:27:19.293Z,9.60
2019-03-28T06:29:45.553Z,9.60
2019-03-28T06:32:11.746Z,9.60
2019-03-28T06:34:40.862Z,9.60
2019-03-28T06:37:25.612Z,9.60
2019-03-28T06:39:51.831Z,9.70
2019-03-28T06:42:18.042Z,9.70
2019-03-28T06:44:47.187Z,9.80
2019-03-28T06:47:15.906Z,9.80
2019-03-28T06:49:42.102Z,9.90
2019-03-28T06:52:08.310Z,9.80
2019-03-28T06:54:34.586Z,9.90
2019-03-28T06:57:00.878Z,9.90
2019-03-28T06:59:36.679Z,9.90
2019-03-28T07:01:55.401Z,10.00
2019-03-28T07:04:24.538Z,10.10
2019-03-28T07:06:53.335Z,10.10
2019-03-28T07:09:19.550Z,10.10
2019-03-28T07:11:45.779Z,10.10
2019-03-28T07:14:12.043Z,10.20
2019-03-28T07:16:38.330Z,10.20
2019-03-28T07:19:05.019Z,10.20
2019-03-28T07:21:49.444Z,10.30
2019-03-28T07:24:15.638Z,10.30
2019-03-28T07:27:00.121Z,10.30
2019-03-28T07:29:26.278Z,10.30
2019-03-28T07:31:52.442Z,10.40
2019-03-28T07:34:27.757Z,10.50
2019-03-28T07:36:53.936Z,10.50
2019-03-28T07:39:20.139Z,10.50
2019-03-28T07:41:46.359Z,10.60
2019-03-28T07:44:12.790Z,10.60
2019-03-28T07:46:39.197Z,10.60
2019-03-28T07:49:08.000Z,10.70
2019-03-28T07:51:34.202Z,10.70
2019-03-28T07:54:00.360Z,10.70
2019-03-28T07:56:26.618Z,10.80
2019-03-28T07:58:52.937Z,10.80
2019-03-28T08:01:19.155Z,10.90
2019-03-28T08:03:45.315Z,10.90
2019-03-28T08:06:29.907Z,11.00
2019-03-28T08:08:56.084Z,11.00
2019-03-28T08:11:22.364Z,11.00
2019-03-28T08:13:48.750Z,11.10
2019-03-28T08:16:17.984Z,11.10
2019-03-28T08:18:44.272Z,11.10
2019-03-28T08:21:10.478Z,11.10
2019-03-28T08:23:36.719Z,11.10
2019-03-28T08:26:03.033Z,11.20
2019-03-28T08:28:32.195Z,11.30
2019-03-28T08:31:00.928Z,11.30
2019-03-28T08:33:30.468Z,11.40
2019-03-28T08:35:56.858Z,11.50
2019-03-28T08:38:24.952Z,11.50
2019-03-28T08:40:51.668Z,11.60
2019-03-28T08:43:27.315Z,11.70
2019-03-28T08:45:56.102Z,11.70
2019-03-28T08:48:22.283Z,11.70
2019-03-28T08:50:48.638Z,11.80
2019-03-28T08:53:14.842Z,11.90
2019-03-28T08:55:41.128Z,12.00
2019-03-28T08:58:19.463Z,12.00
2019-03-28T09:00:52.300Z,12.10
2019-03-28T09:03:25.777Z,12.20
2019-03-28T09:05:54.698Z,12.20
2019-03-28T09:08:36.210Z,12.20
2019-03-28T09:11:02.832Z,12.30
2019-03-28T09:13:31.819Z,12.30
2019-03-28T09:15:58.178Z,12.50
2019-03-28T09:18:42.967Z,12.70
2019-03-28T09:21:09.177Z,12.80
2019-03-28T09:23:35.371Z,12.80
2019-03-28T09:26:04.238Z,12.70
2019-03-28T09:28:47.869Z,12.70
2019-03-28T09:31:19.873Z,12.60
2019-03-28T09:33:42.301Z,12.50
2019-03-28T09:36:08.578Z,12.50
2019-03-28T09:38:34.786Z,12.40
2019-03-28T09:41:00.978Z,12.40
2019-03-28T09:43:27.209Z,12.40
2019-03-28T09:45:53.410Z,12.50
2019-03-28T09:48:20.117Z,12.50
2019-03-28T09:50:49.225Z,12.50
2019-03-28T09:53:15.405Z,12.50
2019-03-28T09:55:41.622Z,12.50
2019-03-28T09:58:07.761Z,12.50
2019-03-28T10:00:34.691Z,12.50
2019-03-28T10:03:01.111Z,12.60
2019-03-28T10:05:29.912Z,12.70
2019-03-28T10:07:56.126Z,12.70
2019-03-28T10:10:22.587Z,12.60
2019-03-28T10:12:51.451Z,12.60
2019-03-28T10:15:17.955Z,12.50
2019-03-28T10:18:02.912Z,12.50
2019-03-28T10:20:29.226Z,12.70
2019-03-28T10:22:58.438Z,12.80
2019-03-28T10:25:43.388Z,12.80
2019-03-28T10:28:09.553Z,12.90
2019-03-28T10:30:40.091Z,12.90
2019-03-28T10:33:08.988Z,13.00
2019-03-28T10:35:35.158Z,13.00
2019-03-28T10:38:01.355Z,13.00
2019-03-28T10:40:27.539Z,13.10
2019-03-28T10:42:53.705Z,13.10
2019-03-28T10:45:19.957Z,13.20
2019-03-28T10:47:46.312Z,13.20
2019-03-28T10:50:12.576Z,13.20
2019-03-28T10:52:38.764Z,13.30
2019-03-28T10:55:05.121Z,13.30
2019-03-28T10:57:32.185Z,13.50
2019-03-28T10:59:58.702Z,13.70
2019-03-28T11:02:24.952Z,13.90
2019-03-28T11:04:51.118Z,14.00
2019-03-28T11:07:17.284Z,14.20
2019-03-28T11:09:43.495Z,14.30
2019-03-28T11:12:28.403Z,14.60
2019-03-28T11:14:54.657Z,14.80
2019-03-28T11:17:21.766Z,15.00
2019-03-28T11:20:07.121Z,15.20
2019-03-28T11:22:36.285Z,15.30
2019-03-28T11:25:04.971Z,15.20
2019-03-28T11:27:33.759Z,15.00
2019-03-28T11:30:00.348Z,15.00
2019-03-28T11:32:45.432Z,14.90
2019-03-28T11:35:11.815Z,14.90
2019-03-28T11:37:38.369Z,14.90
2019-03-28T11:40:09.136Z,14.90
2019-03-28T11:42:37.722Z,15.00
2019-03-28T11:45:09.275Z,15.00
2019-03-28T11:47:38.009Z,14.90
2019-03-28T11:50:06.254Z,14.80
2019-03-28T11:52:32.619Z,14.70
2019-03-28T11:55:01.834Z,14.60
2019-03-28T11:57:46.846Z,14.40
2019-03-28T12:00:15.513Z,14.20
2019-03-28T12:02:41.901Z,14.10
2019-03-28T12:05:17.264Z,14.00
2019-03-28T12:07:43.551Z,13.90
2019-03-28T12:10:10.935Z,13.90
2019-03-28T12:12:37.134Z,13.80
2019-03-28T12:15:05.728Z,13.80
2019-03-28T12:17:47.134Z,13.80
2019-03-28T12:20:13.615Z,13.70
2019-03-28T12:22:40.205Z,13.70
2019-03-28T12:25:09.354Z,13.70
2019-03-28T12:27:54.231Z,13.60
2019-03-28T12:30:20.669Z,13.50
2019-03-28T12:32:46.880Z,13.50
2019-03-28T12:35:13.383Z,13.50
2019-03-28T12:37:39.875Z,13.40
2019-03-28T12:40:15.600Z,13.40
2019-03-28T12:42:42.024Z,13.30
2019-03-28T12:45:23.564Z,13.30
2019-03-28T12:47:50.057Z,13.30
2019-03-28T12:50:34.924Z,13.40
2019-03-28T12:53:01.125Z,13.50
2019-03-28T12:55:27.373Z,13.50
2019-03-28T12:57:54.043Z,13.50
2019-03-28T13:00:32.796Z,13.60
2019-03-28T13:02:59.007Z,13.60
2019-03-28T13:05:26.351Z,13.60
2019-03-28T13:08:02.119Z,13.60
2019-03-28T13:10:28.341Z,13.60
2019-03-28T13:12:54.543Z,13.50
2019-03-28T13:15:20.743Z,13.60
2019-03-28T13:17:46.994Z,13.60
2019-03-28T13:20:13.653Z,13.70
2019-03-28T13:22:52.227Z,13.70
2019-03-28T13:25:30.632Z,13.80
2019-03-28T13:27:56.874Z,13.90
2019-03-28T13:30:23.216Z,13.90
2019-03-28T13:32:49.488Z,13.90
2019-03-28T13:35:16.156Z,14.00
2019-03-28T13:37:42.348Z,14.10
2019-03-28T13:40:09.031Z,14.10
2019-03-28T13:42:54.016Z,14.20
2019-03-28T13:45:23.214Z,14.20
2019-03-28T13:48:07.991Z,14.20
2019-03-28T13:50:34.229Z,14.10
2019-03-28T13:53:00.615Z,14.10
2019-03-28T13:55:26.793Z,14.10
2019-03-28T13:57:53.004Z,14.10
2019-03-28T14:00:23.140Z,14.20
2019-03-28T14:02:57.110Z,14.30
2019-03-28T14:05:17.712Z,14.30
2019-03-28T14:07:46.568Z,14.30
2019-03-28T14:10:13.172Z,14.30
2019-03-28T14:12:51.682Z,14.30
2019-03-28T14:15:17.917Z,14.30
2019-03-28T14:17:46.742Z,14.30
2019-03-28T14:20:14.210Z,14.30
2019-03-28T14:22:59.322Z,14.30
2019-03-28T14:25:44.469Z,14.30
2019-03-28T14:28:13.800Z,14.20
2019-03-28T14:30:42.852Z,14.20
2019-03-28T14:33:27.941Z,14.20
2019-03-28T14:35:56.677Z,14.20
2019-03-28T14:38:22.880Z,14.20
2019-03-28T14:40:49.043Z,14.20
2019-03-28T14:43:15.329Z,14.10
2019-03-28T14:45:41.502Z,14.10
2019-03-28T14:48:10.349Z,14.10
2019-03-28T14:50:38.025Z,14.10
2019-03-28T14:53:04.799Z,14.10
2019-03-28T14:55:50.196Z,14.00
2019-03-28T14:58:22.054Z,14.00
2019-03-28T15:00:52.305Z,13.90
2019-03-28T15:03:26.614Z,13.80
2019-03-28T15:05:49.868Z,13.80
2019-03-28T15:08:34.700Z,13.80
2019-03-28T15:11:01.592Z,13.80
2019-03-28T15:13:30.540Z,13.80
2019-03-28T15:15:59.268Z,13.70
2019-03-28T15:18:25.475Z,13.70
2019-03-28T15:20:52.075Z,13.70
2019-03-28T15:23:21.382Z,13.70
2019-03-28T15:25:47.570Z,13.70
2019-03-28T15:28:13.819Z,13.60
2019-03-28T15:30:40.788Z,13.60
2019-03-28T15:33:07.195Z,13.60
2019-03-28T15:35:33.449Z,13.60
2019-03-28T15:37:59.808Z,13.60
2019-03-28T15:40:28.771Z,13.50
2019-03-28T15:42:54.991Z,13.50
2019-03-28T15:45:21.168Z,13.50
2019-03-28T15:47:47.359Z,13.40
2019-03-28T15:50:13.936Z,13.40
2019-03-28T15:52:42.935Z,13.30
2019-03-28T15:55:09.237Z,13.20
2019-03-28T15:57:40.725Z,13.20
2019-03-28T16:00:07.906Z,13.10
2019-03-28T16:02:49.172Z,13.10
2019-03-28T16:05:17.942Z,13.10
2019-03-28T16:07:44.276Z,13.10
2019-03-28T16:10:10.786Z,13.10
2019-03-28T16:12:40.271Z,13.20
2019-03-28T16:15:06.977Z,13.20
2019-03-28T16:17:33.216Z,13.20
2019-03-28T16:20:04.335Z,13.20
2019-03-28T16:22:30.697Z,13.20
2019-03-28T16:24:56.895Z,13.20
2019-03-28T16:27:23.286Z,13.20
2019-03-28T16:29:54.304Z,13.10
2019-03-28T16:32:20.330Z,13.10
2019-03-28T16:34:46.528Z,13.00
2019-03-28T16:37:12.703Z,13.00
2019-03-28T16:39:38.914Z,13.00
2019-03-28T16:42:05.103Z,13.00
2019-03-28T16:44:31.453Z,13.00
2019-03-28T16:47:01.098Z,13.00
2019-03-28T16:49:27.368Z,13.00
2019-03-28T16:51:53.674Z,13.00
2019-03-28T16:54:20.008Z,12.90
2019-03-28T16:56:46.278Z,12.90
2019-03-28T16:59:12.465Z,12.90
2019-03-28T17:01:38.740Z,12.90
2019-03-28T17:04:05.047Z,12.90
2019-03-28T17:06:31.438Z,12.90
2019-03-28T17:09:16.498Z,12.80
2019-03-28T17:11:45.453Z,12.80
2019-03-28T17:14:11.738Z,12.80
2019-03-28T17:16:38.036Z,12.80
2019-03-28T17:19:04.431Z,12.80
2019-03-28T17:21:42.898Z,12.80
2019-03-28T17:24:09.251Z,12.70
2019-03-28T17:26:35.652Z,12.70
2019-03-28T17:29:20.652Z,12.70
2019-03-28T17:31:46.837Z,12.60
2019-03-28T17:34:13.030Z,12.60
2019-03-28T17:36:39.323Z,12.60
2019-03-28T17:39:08.690Z,12.60
2019-03-28T17:41:53.441Z,12.50
2019-03-28T17:44:20.026Z,12.50
2019-03-28T17:46:48.830Z,12.50
2019-03-28T17:49:15.153Z,12.40
2019-03-28T17:51:44.045Z,12.40
2019-03-28T17:54:11.779Z,12.40
2019-03-28T17:56:38.211Z,12.40
2019-03-28T17:59:04.538Z,12.40
2019-03-28T18:01:30.714Z,12.30
2019-03-28T18:03:59.854Z,12.30
2019-03-28T18:06:41.353Z,12.30
2019-03-28T18:09:07.828Z,12.30
2019-03-28T18:11:34.068Z,12.20
2019-03-28T18:14:00.359Z,12.20
2019-03-28T18:16:29.274Z,12.20
2019-03-28T18:18:55.443Z,12.20
2019-03-28T18:21:21.661Z,12.20
2019-03-28T18:23:47.898Z,12.20
2019-03-28T18:26:14.052Z,12.10
2019-03-28T18:28:40.262Z,12.10
2019-03-28T18:31:06.888Z,12.10
2019-03-28T18:33:48.182Z,12.10
2019-03-28T18:36:14.343Z,12.00
2019-03-28T18:38:40.499Z,12.00
2019-03-28T18:41:06.762Z,12.00
2019-03-28T18:43:51.700Z,12.00
2019-03-28T18:46:17.988Z,12.00
2019-03-28T18:48:47.187Z,12.00
2019-03-28T18:51:28.966Z,12.00
2019-03-28T18:53:55.208Z,11.90
2019-03-28T18:56:21.903Z,11.90
2019-03-28T18:59:07.098Z,11.90
2019-03-28T19:01:33.414Z,11.90
2019-03-28T19:04:02.437Z,11.90
2019-03-28T19:06:28.753Z,11.90
2019-03-28T19:09:14.035Z,11.90
2019-03-28T19:11:40.976Z,11.90
2019-03-28T19:14:07.355Z,11.80
2019-03-28T19:16:33.609Z,11.80
2019-03-28T19:19:00.017Z,11.80
2019-03-28T19:21:28.948Z,11.80
2019-03-28T19:23:57.737Z,11.80
2019-03-28T19:26:24.029Z,11.80
2019-03-28T19:28:50.241Z,11.80
2019-03-28T19:31:16.519Z,11.70
2019-03-28T19:33:42.690Z,11.70
2019-03-28T19:36:09.322Z,11.80
2019-03-28T19:38:54.156Z,11.80
2019-03-28T19:41:20.340Z,11.80
2019-03-28T19:43:46.743Z,11.70
2019-03-28T19:46:28.519Z,11.70
2019-03-28T19:48:54.807Z,11.70
2019-03-28T19:51:21.022Z,11.70
2019-03-28T19:53:47.310Z,11.70
2019-03-28T19:56:13.533Z,11.70
2019-03-28T19:58:59.236Z,11.70
2019-03-28T20:01:25.691Z,11.70
2019-03-28T20:03:52.509Z,11.70
2019-03-28T20:06:22.253Z,11.70
2019-03-28T20:08:46.891Z,11.60
2019-03-28T20:11:13.094Z,11.60
2019-03-28T20:13:39.401Z,11.60
2019-03-28T20:16:05.679Z,11.60
2019-03-28T20:18:31.909Z,11.60
2019-03-28T20:20:58.125Z,11.60
2019-03-28T20:23:24.361Z,11.60
2019-03-28T20:25:50.525Z,11.60
2019-03-28T20:28:16.721Z,11.60
2019-03-28T20:30:55.234Z,11.60
2019-03-28T20:33:24.763Z,11.60
2019-03-28T20:36:02.240Z,11.50
2019-03-28T20:38:17.879Z,11.50
2019-03-28T20:40:44.123Z,11.50
2019-03-28T20:43:28.549Z,11.60
2019-03-28T20:45:54.863Z,11.50
2019-03-28T20:48:20.921Z,11.50
2019-03-28T20:50:49.704Z,11.50
2019-03-28T20:53:18.430Z,11.50
2019-03-28T20:56:02.654Z,11.50
2019-03-28T20:58:28.834Z,11.50
2019-03-28T21:00:55.104Z,11.40
2019-03-28T21:03:21.213Z,11.40
2019-03-28T21:05:47.377Z,11.40
2019-03-28T21:08:13.436Z,11.40
2019-03-28T21:10:42.194Z,11.40
2019-03-28T21:13:11.133Z,11.40
2019-03-28T21:15:37.202Z,11.30
2019-03-28T21:18:03.241Z,11.30
2019-03-28T21:20:29.328Z,11.30
2019-03-28T21:23:05.172Z,11.30
2019-03-28T21:25:33.174Z,11.30
2019-03-28T21:27:59.239Z,11.30
2019-03-28T21:30:27.047Z,11.30
2019-03-28T21:32:59.570Z,11.30
2019-03-28T21:35:25.717Z,11.30
2019-03-28T21:37:54.933Z,11.30
2019-03-28T21:40:20.965Z,11.30
2019-03-28T21:42:53.260Z,11.30
2019-03-28T21:45:34.354Z,11.20
2019-03-28T21:48:00.474Z,11.20
2019-03-28T21:50:38.747Z,11.20
2019-03-28T21:53:04.872Z,11.20
2019-03-28T21:55:54.491Z,11.20
2019-03-28T21:58:11.249Z,11.10
2019-03-28T22:00:49.624Z,11.20
2019-03-28T22:03:16.889Z,11.10
2019-03-28T22:05:43.139Z,11.10
2019-03-28T22:08:09.285Z,11.10
2019-03-28T22:10:35.484Z,11.10
2019-03-28T22:13:01.590Z,11.10
2019-03-28T22:15:27.690Z,11.00
2019-03-28T22:17:54.142Z,11.00
2019-03-28T22:20:20.232Z,11.00
2019-03-28T22:23:05.073Z,10.90
2019-03-28T22:25:49.302Z,10.90
2019-03-28T22:28:15.489Z,10.80
2019-03-28T22:30:50.778Z,10.70
2019-03-28T22:33:28.905Z,10.70
2019-03-28T22:35:57.921Z,10.60
2019-03-28T22:38:26.742Z,10.50
2019-03-28T22:40:52.851Z,10.50
2019-03-28T22:43:18.909Z,10.40
2019-03-28T22:45:47.611Z,10.30
2019-03-28T22:48:13.765Z,10.30
2019-03-28T22:50:50.062Z,10.20
2019-03-28T22:53:25.735Z,10.20
2019-03-28T22:55:51.834Z,10.10
2019-03-28T22:58:21.061Z,10.10
2019-03-28T23:00:49.056Z,10.10
2019-03-28T23:03:18.244Z,10.00
2019-03-28T23:05:44.306Z,10.00
2019-03-28T23:08:10.462Z,9.90
2019-03-28T23:10:39.179Z,9.90
2019-03-28T23:13:07.907Z,9.80
2019-03-28T23:15:34.337Z,9.80
2019-03-28T23:18:00.485Z,9.80
2019-03-28T23:20:26.542Z,9.70
2019-03-28T23:22:52.619Z,9.70
2019-03-28T23:25:18.671Z,9.70
2019-03-28T23:28:03.116Z,9.70
2019-03-28T23:30:29.169Z,9.60
2019-03-28T23:33:01.474Z,9.60
2019-03-28T23:35:27.521Z,9.60
2019-03-28T23:37:53.833Z,9.50
2019-03-28T23:40:20.033Z,9.50
2019-03-28T23:42:46.073Z,9.50
2019-03-28T23:45:12.440Z,9.50
2019-03-28T23:47:39.997Z,9.50
2019-03-28T23:50:06.972Z,9.50
2019-03-28T23:52:33.199Z,9.50
2019-03-28T23:54:59.347Z,9.50
2019-03-28T23:57:28.946Z,9.50
2019-03-28T23:59:55.180Z,9.50
